createdAt,value
2022-10-23T00:01:32.675Z,100765.25
2022-10-23T00:04:04.820Z,100765.78
2022-10-23T00:06:32.947Z,100764.44
2022-10-23T00:08:59.994Z,100762.31
2022-10-23T00:11:29.795Z,100772.47
2022-10-23T00:13:59.752Z,100772.25
2022-10-23T00:16:27.472Z,100779.78
2022-10-23T00:18:55.386Z,100773.28
2022-10-23T00:21:22.565Z,100780.81
2022-10-23T00:23:49.358Z,100784.53
2022-10-23T00:26:17.017Z,100791.38
2022-10-23T00:28:44.906Z,100787.09
2022-10-23T00:31:12.371Z,100786.69
2022-10-23T00:33:39.264Z,100791.47
2022-10-23T00:36:12.064Z,100791.59
2022-10-23T00:38:39.278Z,100803.22
2022-10-23T00:41:07.884Z,100805.63
2022-10-23T00:43:54.312Z,100811.78
2022-10-23T00:46:21.080Z,100811.34
2022-10-23T00:48:47.838Z,100812.06
2022-10-23T00:51:14.728Z,100815.75
2022-10-23T00:53:43.474Z,100822.44
2022-10-23T00:56:11.235Z,100825.84
2022-10-23T00:58:38.080Z,100826.16
2022-10-23T01:01:18.282Z,100822.78
2022-10-23T01:03:45.922Z,100837.53
2022-10-23T01:06:35.059Z,100826.69
2022-10-23T01:09:26.405Z,100832.72
2022-10-23T01:12:23.983Z,100834.50
2022-10-23T01:15:41.802Z,100836.28
2022-10-23T01:18:28.041Z,100845.47
2022-10-23T01:21:06.242Z,100847.81
2022-10-23T01:23:41.392Z,100849.38
2022-10-23T01:26:32.530Z,100859.38
2022-10-23T01:29:09.777Z,100858.00
2022-10-23T01:31:48.884Z,100852.78
2022-10-23T01:34:24.123Z,100852.97
2022-10-23T01:36:52.948Z,100858.75
2022-10-23T01:39:25.843Z,100859.38
2022-10-23T01:41:57.356Z,100856.94
2022-10-23T01:44:36.622Z,100857.81
2022-10-23T01:47:07.458Z,100867.91
2022-10-23T01:49:39.490Z,100869.06
2022-10-23T01:52:10.708Z,100866.03
2022-10-23T01:54:41.042Z,100862.97
2022-10-23T01:57:11.206Z,100855.53
2022-10-23T01:59:47.782Z,100850.41
2022-10-23T02:02:16.977Z,100850.56
2022-10-23T02:04:55.660Z,100845.28
2022-10-23T02:07:23.116Z,100844.78
2022-10-23T02:09:49.892Z,100844.66
2022-10-23T02:12:45.787Z,100847.44
2022-10-23T02:15:33.610Z,100851.41
2022-10-23T02:18:09.914Z,100838.97
2022-10-23T02:20:47.859Z,100845.66
2022-10-23T02:23:29.439Z,100855.69
2022-10-23T02:26:04.024Z,100846.84
2022-10-23T02:28:50.141Z,100844.31
2022-10-23T02:31:19.878Z,100846.97
2022-10-23T02:33:56.140Z,100850.37
2022-10-23T02:36:42.979Z,100853.19
2022-10-23T02:39:43.799Z,100856.28
2022-10-23T02:42:50.335Z,100860.50
2022-10-23T02:45:52.780Z,100857.28
2022-10-23T02:49:15.581Z,100852.62
2022-10-23T02:52:19.027Z,100865.88
2022-10-23T02:55:29.776Z,100871.88
2022-10-23T02:58:04.866Z,100887.75
2022-10-23T03:01:10.076Z,100886.78
2022-10-23T03:03:59.373Z,100886.78
2022-10-23T03:06:53.361Z,100895.81
2022-10-23T03:09:40.129Z,100907.31
2022-10-23T03:12:13.756Z,100900.38
2022-10-23T03:14:57.148Z,100895.53
2022-10-23T03:17:51.645Z,100895.53
2022-10-23T03:20:41.599Z,100890.34
2022-10-23T03:23:28.575Z,100890.69
2022-10-23T03:26:14.060Z,100897.47
2022-10-23T03:28:49.519Z,100904.09
2022-10-23T03:31:35.779Z,100896.19
2022-10-23T03:34:22.691Z,100898.94
2022-10-23T03:37:10.336Z,100902.00
2022-10-23T03:40:00.279Z,100906.03
2022-10-23T03:42:59.193Z,100900.53
2022-10-23T03:45:52.904Z,100903.12
2022-10-23T03:48:38.213Z,100914.28
2022-10-23T03:51:27.453Z,100903.94
2022-10-23T03:54:25.930Z,100907.50
2022-10-23T03:57:08.284Z,100907.78
2022-10-23T03:59:45.072Z,100912.81
2022-10-23T04:02:44.722Z,100917.69
2022-10-23T04:05:32.307Z,100912.34
2022-10-23T04:08:30.102Z,100913.47
2022-10-23T04:11:12.087Z,100910.72
2022-10-23T04:13:50.528Z,100920.09
2022-10-23T04:16:36.237Z,100921.69
2022-10-23T04:19:23.173Z,100915.56
2022-10-23T04:22:03.443Z,100908.94
2022-10-23T04:24:59.019Z,100907.28
2022-10-23T04:27:35.004Z,100896.78
2022-10-23T04:30:23.167Z,100895.50
2022-10-23T04:33:07.966Z,100892.25
2022-10-23T04:35:55.047Z,100895.50
2022-10-23T04:38:43.471Z,100897.28
2022-10-23T04:41:39.004Z,100899.88
2022-10-23T04:44:25.779Z,100911.50
2022-10-23T04:47:11.382Z,100909.88
2022-10-23T04:50:06.567Z,100910.34
2022-10-23T04:52:57.152Z,100923.12
2022-10-23T04:55:55.571Z,100917.81
2022-10-23T04:58:31.249Z,100929.25
2022-10-23T05:01:27.395Z,100927.00
2022-10-23T05:04:08.491Z,100930.38
2022-10-23T05:06:55.134Z,100926.78
2022-10-23T05:09:56.094Z,100935.69
2022-10-23T05:12:49.246Z,100923.88
2022-10-23T05:15:46.309Z,100924.19
2022-10-23T05:18:47.853Z,100935.81
2022-10-23T05:21:43.131Z,100934.84
2022-10-23T05:24:46.991Z,100942.44
2022-10-23T05:27:41.452Z,100946.66
2022-10-23T05:30:20.365Z,100939.53
2022-10-23T05:33:04.973Z,100928.25
2022-10-23T05:35:52.902Z,100929.53
2022-10-23T05:38:38.512Z,100935.84
2022-10-23T05:41:26.750Z,100946.97
2022-10-23T05:44:12.640Z,100943.44
2022-10-23T05:47:07.126Z,100945.87
2022-10-23T05:50:00.009Z,100942.81
2022-10-23T05:52:42.735Z,100947.06
2022-10-23T05:55:17.786Z,100951.44
2022-10-23T05:57:47.465Z,100954.19
2022-10-23T06:00:18.720Z,100950.28
2022-10-23T06:03:00.066Z,100949.16
2022-10-23T06:05:28.033Z,100948.28
2022-10-23T06:07:59.612Z,100945.97
2022-10-23T06:10:28.506Z,100953.97
2022-10-23T06:12:55.462Z,100961.63
2022-10-23T06:15:23.657Z,100965.78
2022-10-23T06:17:50.282Z,100961.53
2022-10-23T06:20:16.826Z,100976.25
2022-10-23T06:22:46.122Z,100974.31
2022-10-23T06:25:15.258Z,100973.09
2022-10-23T06:27:41.866Z,100979.53
2022-10-23T06:30:09.918Z,100976.69
2022-10-23T06:32:39.101Z,100986.91
2022-10-23T06:35:10.813Z,100980.91
2022-10-23T06:37:39.073Z,100986.37
2022-10-23T06:40:10.013Z,101002.06
2022-10-23T06:42:37.591Z,101005.53
2022-10-23T06:45:28.514Z,101004.38
2022-10-23T06:48:03.845Z,101014.69
2022-10-23T06:50:33.310Z,101015.22
2022-10-23T06:53:03.981Z,101022.31
2022-10-23T06:55:40.542Z,101027.50
2022-10-23T06:58:10.945Z,101020.50
2022-10-23T07:00:40.623Z,101018.53
2022-10-23T07:03:09.636Z,101023.47
2022-10-23T07:05:36.900Z,101024.59
2022-10-23T07:08:06.845Z,101028.97
2022-10-23T07:10:35.795Z,101036.03
2022-10-23T07:13:03.963Z,101031.91
2022-10-23T07:15:30.810Z,101036.81
2022-10-23T07:17:59.249Z,101031.50
2022-10-23T07:20:26.250Z,101037.56
2022-10-23T07:22:54.583Z,101035.59
2022-10-23T07:25:27.429Z,101031.94
2022-10-23T07:27:55.883Z,101040.91
2022-10-23T07:30:24.294Z,101048.13
2022-10-23T07:32:53.164Z,101042.84
2022-10-23T07:35:19.772Z,101040.81
2022-10-23T07:37:46.616Z,101053.19
2022-10-23T07:40:14.561Z,101043.81
2022-10-23T07:42:41.578Z,101034.78
2022-10-23T07:45:09.093Z,101030.88
2022-10-23T07:47:35.819Z,101033.34
2022-10-23T07:50:02.500Z,101021.16
2022-10-23T07:52:32.056Z,101026.97
2022-10-23T07:55:02.122Z,101022.00
2022-10-23T07:57:28.745Z,101025.31
2022-10-23T07:59:55.338Z,101026.19
2022-10-23T08:02:22.071Z,101035.19
2022-10-23T08:04:52.825Z,101030.13
2022-10-23T08:07:19.393Z,101033.03
2022-10-23T08:09:46.004Z,101025.62
2022-10-23T08:12:12.618Z,101019.41
2022-10-23T08:14:39.238Z,101028.88
2022-10-23T08:17:09.652Z,101026.50
2022-10-23T08:19:36.828Z,101026.78
2022-10-23T08:22:03.935Z,101008.50
2022-10-23T08:24:30.553Z,101012.66
2022-10-23T08:26:57.117Z,101019.78
2022-10-23T08:29:23.720Z,101025.00
2022-10-23T08:31:53.857Z,101020.97
2022-10-23T08:34:20.904Z,101018.75
2022-10-23T08:36:47.649Z,101019.56
2022-10-23T08:39:14.227Z,101024.59
2022-10-23T08:41:43.273Z,101020.37
2022-10-23T08:44:26.402Z,101018.72
2022-10-23T08:46:59.350Z,101021.47
2022-10-23T08:49:28.856Z,101023.16
2022-10-23T08:52:10.349Z,101033.22
2022-10-23T08:54:58.775Z,101031.56
2022-10-23T08:57:38.747Z,101027.63
2022-10-23T09:00:12.587Z,101030.13
2022-10-23T09:02:44.005Z,101029.31
2022-10-23T09:05:18.386Z,101022.19
2022-10-23T09:08:20.893Z,101020.34
2022-10-23T09:11:28.030Z,101013.97
2022-10-23T09:14:32.182Z,101014.38
2022-10-23T09:16:58.673Z,101007.03
2022-10-23T09:19:28.094Z,101016.94
2022-10-23T09:21:55.991Z,101017.56
2022-10-23T09:24:26.524Z,101020.41
2022-10-23T09:26:54.479Z,101016.59
2022-10-23T09:29:30.130Z,101022.63
2022-10-23T09:31:59.193Z,101033.34
2022-10-23T09:34:28.453Z,101034.03
2022-10-23T09:36:58.246Z,101031.09
2022-10-23T09:39:33.981Z,101030.13
2022-10-23T09:42:02.509Z,101051.38
2022-10-23T09:44:34.125Z,101048.41
2022-10-23T09:47:11.354Z,101051.97
2022-10-23T09:49:46.503Z,101046.06
2022-10-23T09:52:16.166Z,101047.03
2022-10-23T09:54:56.920Z,101052.75
2022-10-23T09:57:44.932Z,101052.34
2022-10-23T10:00:14.910Z,101052.75
2022-10-23T10:02:44.126Z,101053.87
2022-10-23T10:05:35.903Z,101049.06
2022-10-23T10:08:20.637Z,101046.87
2022-10-23T10:11:20.543Z,101039.59
2022-10-23T10:13:53.258Z,101033.69
2022-10-23T10:16:57.526Z,101037.06
2022-10-23T10:19:24.093Z,101023.13
2022-10-23T10:21:59.493Z,101020.59
2022-10-23T10:24:36.028Z,101013.06
2022-10-23T10:27:08.978Z,101006.13
2022-10-23T10:29:59.141Z,101000.25
2022-10-23T10:32:25.558Z,101005.28
2022-10-23T10:35:33.873Z,100994.56
2022-10-23T10:38:09.505Z,101005.16
2022-10-23T10:40:42.316Z,100998.22
2022-10-23T10:43:18.021Z,100994.31
2022-10-23T10:45:48.749Z,100998.34
2022-10-23T10:48:23.437Z,100997.06
2022-10-23T10:50:56.467Z,100984.38
2022-10-23T10:53:44.645Z,100975.69
2022-10-23T10:56:16.725Z,100990.84
2022-10-23T10:58:58.157Z,100977.88
2022-10-23T11:01:26.742Z,100981.66
2022-10-23T11:04:35.274Z,100971.34
2022-10-23T11:07:07.848Z,100965.44
2022-10-23T11:09:34.538Z,100959.84
2022-10-23T11:12:01.077Z,100951.72
2022-10-23T11:14:33.037Z,100945.75
2022-10-23T11:17:09.756Z,100944.66
2022-10-23T11:19:40.188Z,100937.78
2022-10-23T11:22:06.631Z,100947.25
2022-10-23T11:24:57.321Z,100937.78
2022-10-23T11:27:49.539Z,100932.53
2022-10-23T11:30:29.891Z,100933.97
2022-10-23T11:33:32.302Z,100931.63
2022-10-23T11:36:19.621Z,100930.94
2022-10-23T11:38:51.566Z,100933.47
2022-10-23T11:41:27.034Z,100936.72
2022-10-23T11:44:04.046Z,100939.41
2022-10-23T11:46:37.222Z,100935.81
2022-10-23T11:49:06.424Z,100922.00
2022-10-23T11:51:37.229Z,100932.47
2022-10-23T11:54:07.002Z,100934.19
2022-10-23T11:56:34.248Z,100932.91
2022-10-23T11:59:22.638Z,100934.53
2022-10-23T12:01:52.099Z,100935.50
2022-10-23T12:04:26.766Z,100942.03
2022-10-23T12:07:00.535Z,100928.19
2022-10-23T12:09:30.080Z,100922.44
2022-10-23T12:12:08.249Z,100926.13
2022-10-23T12:14:43.812Z,100912.91
2022-10-23T12:17:22.418Z,100912.66
2022-10-23T12:19:54.589Z,100898.94
2022-10-23T12:22:26.150Z,100897.06
2022-10-23T12:25:02.966Z,100891.66
2022-10-23T12:27:39.126Z,100885.91
2022-10-23T12:30:42.225Z,100880.91
2022-10-23T12:33:21.308Z,100884.75
2022-10-23T12:36:05.467Z,100882.94
2022-10-23T12:38:35.477Z,100885.31
2022-10-23T12:41:26.671Z,100877.66
2022-10-23T12:43:59.962Z,100877.78
2022-10-23T12:46:37.121Z,100872.03
2022-10-23T12:49:12.687Z,100865.59
2022-10-23T12:51:39.331Z,100860.56
2022-10-23T12:54:19.656Z,100859.28
2022-10-23T12:56:47.452Z,100856.16
2022-10-23T12:59:18.302Z,100855.41
2022-10-23T13:01:47.052Z,100848.25
2022-10-23T13:04:29.271Z,100847.72
2022-10-23T13:06:58.726Z,100842.16
2022-10-23T13:09:38.582Z,100841.75
2022-10-23T13:12:07.248Z,100841.47
2022-10-23T13:14:33.742Z,100842.19
2022-10-23T13:17:03.429Z,100830.09
2022-10-23T13:19:30.292Z,100831.19
2022-10-23T13:21:57.893Z,100820.31
2022-10-23T13:24:27.696Z,100821.31
2022-10-23T13:26:55.162Z,100821.06
2022-10-23T13:29:29.761Z,100813.72
2022-10-23T13:31:56.692Z,100818.66
2022-10-23T13:34:30.709Z,100813.97
2022-10-23T13:37:03.210Z,100813.81
2022-10-23T13:39:34.353Z,100811.38
2022-10-23T13:42:11.804Z,100807.34
2022-10-23T13:44:38.709Z,100805.44
2022-10-23T13:47:05.883Z,100810.53
2022-10-23T13:49:32.485Z,100810.88
2022-10-23T13:51:59.021Z,100806.56
2022-10-23T13:57:00.308Z,100805.41
2022-10-23T13:59:26.946Z,100800.13
2022-10-23T14:01:53.833Z,100796.87
2022-10-23T14:04:20.975Z,100797.09
2022-10-23T14:06:50.398Z,100786.81
2022-10-23T14:09:18.328Z,100791.44
2022-10-23T14:11:45.105Z,100786.63
2022-10-23T14:14:12.123Z,100786.34
2022-10-23T14:16:38.855Z,100780.44
2022-10-23T14:19:06.851Z,100778.19
2022-10-23T14:21:33.496Z,100775.00
2022-10-23T14:24:00.193Z,100774.03
2022-10-23T14:26:30.295Z,100764.69
2022-10-23T14:29:00.675Z,100767.31
2022-10-23T14:31:31.058Z,100760.62
2022-10-23T14:34:00.679Z,100755.22
2022-10-23T14:36:34.449Z,100759.16
2022-10-23T14:39:10.162Z,100755.56
2022-10-23T14:41:37.362Z,100759.63
2022-10-23T14:44:03.940Z,100755.56
2022-10-23T14:46:30.543Z,100760.28
2022-10-23T14:48:59.978Z,100757.00
2022-10-23T14:51:30.428Z,100755.09
2022-10-23T14:54:01.469Z,100755.19
2022-10-23T14:56:29.868Z,100744.44
2022-10-23T14:59:02.685Z,100741.16
2022-10-23T15:01:35.028Z,100749.22
2022-10-23T15:04:01.917Z,100740.59
2022-10-23T15:06:28.514Z,100738.91
2022-10-23T15:08:56.006Z,100742.78
2022-10-23T15:11:26.274Z,100744.53
2022-10-23T15:13:54.730Z,100742.37
2022-10-23T15:16:23.070Z,100737.47
2022-10-23T15:18:49.687Z,100745.06
2022-10-23T15:21:16.706Z,100730.44
2022-10-23T15:23:45.109Z,100722.81
2022-10-23T15:26:20.180Z,100708.44
2022-10-23T15:28:48.186Z,100703.09
2022-10-23T15:31:30.466Z,100688.63
2022-10-23T15:33:57.598Z,100697.25
2022-10-23T15:36:24.221Z,100694.09
2022-10-23T15:38:50.831Z,100702.44
2022-10-23T15:41:22.387Z,100699.56
2022-10-23T15:46:16.867Z,100713.69
2022-10-23T15:48:43.409Z,100705.37
2022-10-23T15:51:09.959Z,100708.00
2022-10-23T15:53:36.509Z,100718.19
2022-10-23T15:56:03.419Z,100718.28
2022-10-23T15:58:30.034Z,100718.87
2022-10-23T16:00:56.651Z,100723.34
2022-10-23T16:03:23.228Z,100722.31
2022-10-23T16:05:49.760Z,100725.53
2022-10-23T16:08:16.370Z,100732.94
2022-10-23T16:10:43.421Z,100719.56
2022-10-23T16:13:10.071Z,100724.81
2022-10-23T16:15:37.225Z,100723.66
2022-10-23T16:18:04.551Z,100720.94
2022-10-23T16:20:31.218Z,100724.03
2022-10-23T16:22:57.799Z,100728.59
2022-10-23T16:25:24.391Z,100731.13
2022-10-23T16:27:50.949Z,100727.56
2022-10-23T16:30:17.588Z,100739.91
2022-10-23T16:32:44.141Z,100737.50
2022-10-23T16:35:12.996Z,100734.19
2022-10-23T16:37:39.811Z,100745.16
2022-10-23T16:40:06.969Z,100767.50
2022-10-23T16:42:33.611Z,100772.28
2022-10-23T16:45:01.286Z,100761.69
2022-10-23T16:47:31.204Z,100765.91
2022-10-23T16:49:57.970Z,100766.50
2022-10-23T16:52:24.925Z,100766.59
2022-10-23T16:54:52.853Z,100767.75
2022-10-23T16:57:19.679Z,100765.13
2022-10-23T16:59:46.240Z,100763.50
2022-10-23T17:02:13.113Z,100757.25
2022-10-23T17:04:40.511Z,100765.44
2022-10-23T17:07:07.228Z,100763.75
2022-10-23T17:09:35.691Z,100776.88
2022-10-23T17:12:02.418Z,100785.78
2022-10-23T17:14:29.386Z,100785.56
2022-10-23T17:16:59.328Z,100789.78
2022-10-23T17:19:43.755Z,100797.97
2022-10-23T17:22:12.607Z,100797.97
2022-10-23T17:24:40.888Z,100791.47
2022-10-23T17:27:07.739Z,100785.31
2022-10-23T17:29:34.349Z,100776.19
2022-10-23T17:32:01.151Z,100776.06
2022-10-23T17:34:27.800Z,100780.84
2022-10-23T17:36:55.416Z,100776.28
2022-10-23T17:39:25.246Z,100769.13
2022-10-23T17:41:52.424Z,100771.19
2022-10-23T17:44:19.039Z,100774.25
2022-10-23T17:46:45.603Z,100777.78
2022-10-23T17:49:12.716Z,100772.97
2022-10-23T17:51:40.051Z,100772.87
2022-10-23T17:54:09.689Z,100774.03
2022-10-23T17:56:38.369Z,100758.50
2022-10-23T17:59:12.742Z,100751.56
2022-10-23T18:01:39.855Z,100749.50
2022-10-23T18:04:07.732Z,100753.84
2022-10-23T18:06:40.200Z,100741.59
2022-10-23T18:09:07.476Z,100748.91
2022-10-23T18:11:37.682Z,100744.12
2022-10-23T18:14:06.429Z,100744.91
2022-10-23T18:16:34.862Z,100754.03
2022-10-23T18:19:02.068Z,100751.97
2022-10-23T18:21:28.888Z,100750.41
2022-10-23T18:23:55.765Z,100749.03
2022-10-23T18:26:25.902Z,100754.03
2022-10-23T18:28:53.943Z,100749.91
2022-10-23T18:31:21.476Z,100745.25
2022-10-23T18:33:48.064Z,100756.09
2022-10-23T18:36:23.044Z,100760.75
2022-10-23T18:38:50.311Z,100758.81
2022-10-23T18:41:18.809Z,100753.34
2022-10-23T18:43:45.904Z,100758.13
2022-10-23T18:46:13.946Z,100751.53
2022-10-23T18:48:41.282Z,100750.59
2022-10-23T18:51:20.246Z,100750.25
2022-10-23T18:53:47.139Z,100746.63
2022-10-23T18:56:15.519Z,100748.75
2022-10-23T18:58:42.329Z,100751.06
2022-10-23T19:01:09.013Z,100747.62
2022-10-23T19:03:35.646Z,100746.97
2022-10-23T19:06:02.296Z,100737.69
2022-10-23T19:08:29.176Z,100748.44
2022-10-23T19:10:57.472Z,100747.03
2022-10-23T19:13:24.028Z,100748.31
2022-10-23T19:15:50.706Z,100737.94
2022-10-23T19:18:17.328Z,100742.63
2022-10-23T19:20:44.209Z,100730.88
2022-10-23T19:23:12.855Z,100737.47
2022-10-23T19:25:45.529Z,100743.41
2022-10-23T19:28:12.130Z,100742.97
2022-10-23T19:30:39.531Z,100734.63
2022-10-23T19:33:06.096Z,100749.00
2022-10-23T19:35:32.628Z,100742.56
2022-10-23T19:37:59.291Z,100750.00
2022-10-23T19:40:26.030Z,100753.62
2022-10-23T19:42:54.277Z,100750.69
2022-10-23T19:45:21.061Z,100753.62
2022-10-23T19:47:47.956Z,100748.94
2022-10-23T19:50:15.111Z,100740.59
2022-10-23T19:52:41.654Z,100743.38
2022-10-23T19:55:08.999Z,100747.91
2022-10-23T19:57:35.716Z,100748.25
2022-10-23T20:00:04.465Z,100743.44
2022-10-23T20:02:33.248Z,100738.56
2022-10-23T20:04:59.933Z,100741.19
2022-10-23T20:07:26.542Z,100738.66
2022-10-23T20:09:54.088Z,100745.78
2022-10-23T20:12:20.626Z,100742.00
2022-10-23T20:14:47.163Z,100746.81
2022-10-23T20:17:13.764Z,100757.06
2022-10-23T20:19:40.406Z,100760.94
2022-10-23T20:22:06.969Z,100766.72
2022-10-23T20:24:33.671Z,100755.91
2022-10-23T20:27:00.330Z,100759.41
2022-10-23T20:29:26.892Z,100756.38
2022-10-23T20:31:53.485Z,100748.50
2022-10-23T20:34:20.203Z,100747.53
2022-10-23T20:36:49.259Z,100740.34
2022-10-23T20:39:19.492Z,100733.81
2022-10-23T20:41:46.289Z,100734.56
2022-10-23T20:46:48.121Z,100727.84
2022-10-23T20:49:15.533Z,100727.41
2022-10-23T20:51:45.797Z,100732.56
2022-10-23T20:54:12.365Z,100725.28
2022-10-23T20:56:39.788Z,100732.56
2022-10-23T20:59:10.484Z,100715.25
2022-10-23T21:01:40.609Z,100708.41
2022-10-23T21:04:07.636Z,100706.09
2022-10-23T21:06:46.179Z,100698.37
2022-10-23T21:09:21.155Z,100700.22
2022-10-23T21:11:47.720Z,100705.03
2022-10-23T21:14:14.306Z,100706.75
2022-10-23T21:16:44.427Z,100714.69
2022-10-23T21:19:14.376Z,100714.16
2022-10-23T21:21:41.037Z,100702.69
2022-10-23T21:24:12.306Z,100707.47
2022-10-23T21:26:39.011Z,100708.28
2022-10-23T21:29:21.027Z,100689.81
2022-10-23T21:31:56.662Z,100700.50
2022-10-23T21:34:24.793Z,100696.59
2022-10-23T21:37:11.985Z,100700.75
2022-10-23T21:39:38.155Z,100702.72
2022-10-23T21:42:04.956Z,100704.78
2022-10-23T21:44:31.536Z,100696.06
2022-10-23T21:46:58.117Z,100693.34
2022-10-23T21:49:24.689Z,100698.59
2022-10-23T21:51:51.375Z,100701.37
2022-10-23T21:54:17.935Z,100704.56
2022-10-23T21:56:47.155Z,100696.72
2022-10-23T21:59:16.909Z,100700.34
2022-10-23T22:01:45.061Z,100705.00
2022-10-23T22:04:14.269Z,100701.59
2022-10-23T22:06:42.547Z,100705.22
2022-10-23T22:09:11.373Z,100701.16
2022-10-23T22:11:38.026Z,100689.88
2022-10-23T22:14:04.938Z,100689.72
2022-10-23T22:16:32.049Z,100692.78
2022-10-23T22:18:58.790Z,100702.59
2022-10-23T22:21:28.165Z,100700.34
2022-10-23T22:23:57.160Z,100708.34
2022-10-23T22:26:23.743Z,100708.34
2022-10-23T22:28:55.766Z,100703.69
2022-10-23T22:31:26.451Z,100698.75
2022-10-23T22:33:54.086Z,100692.47
2022-10-23T22:36:21.396Z,100696.81
2022-10-23T22:38:48.415Z,100697.16
2022-10-23T22:41:15.971Z,100692.50
2022-10-23T22:43:42.570Z,100705.03
2022-10-23T22:46:12.358Z,100700.78
2022-10-23T22:48:39.688Z,100691.41
2022-10-23T22:51:09.022Z,100696.44
2022-10-23T22:53:35.955Z,100695.19
2022-10-23T22:56:06.798Z,100700.75
2022-10-23T22:58:33.411Z,100692.38
2022-10-23T23:01:44.710Z,100698.03
2022-10-23T23:04:32.947Z,100697.91
2022-10-23T23:06:59.155Z,100690.91
2022-10-23T23:09:25.732Z,100694.00
2022-10-23T23:11:52.670Z,100690.59
2022-10-23T23:14:23.538Z,100686.50
2022-10-23T23:16:52.751Z,100680.72
2022-10-23T23:19:19.822Z,100682.59
2022-10-23T23:21:46.645Z,100680.75
2022-10-23T23:24:13.475Z,100678.00
2022-10-23T23:26:40.718Z,100675.06
2022-10-23T23:29:07.332Z,100668.41
2022-10-23T23:31:33.886Z,100678.06
2022-10-23T23:34:01.002Z,100673.91
2022-10-23T23:36:28.166Z,100679.78
2022-10-23T23:38:56.723Z,100682.59
2022-10-23T23:41:24.917Z,100681.03
2022-10-23T23:43:54.696Z,100685.94
2022-10-23T23:46:21.311Z,100674.69
2022-10-23T23:48:49.438Z,100665.81
2022-10-23T23:51:18.328Z,100674.50
2022-10-23T23:53:44.990Z,100674.72
2022-10-23T23:56:11.592Z,100667.69
2022-10-23T23:58:38.191Z,100668.69
